Aviation Digital Data Service (ADDS)

Output produced by TAFs form (1149 UTC 27 May 2017)
found at http://www.aviationweather.gov/adds/tafs/
 
METAR text: RJOT 271100Z 18004KT 140V220 9999 FEW030 SCT070 17/12 Q1012
Conditions at: RJOT (TAKAMATSU AIRPOR, JP) observed 1100 UTC 27 May 2017
Temperature: 17.0°C (63°F)
Dewpoint: 12.0°C (54°F) [RH = 72%]
Pressure (altimeter): 29.88 inches Hg (1012.0 mb)
Winds: from the S (180 degrees) at 5 MPH (4 knots; 2.1 m/s)
Visibility: 6 or more miles (10+ km)
Ceiling: at least 12,000 feet AGL
Clouds: few clouds at 3000 feet AGL
scattered clouds at 7000 feet AGL
Weather: no significant weather observed at this time

Forecast for: RJOT (TAKAMATSU AIRPOR, JP)
Text: TAF RJOT 271108Z 2712/2818 21005KT 9999 FEW030
Forecast period: 1200 UTC 27 May 2017 to 1200 UTC 28 May 2017
Forecast type: FROM: standard forecast or significant change
Winds: from the SSW (210 degrees) at 6 MPH (5 knots; 2.6 m/s)
Visibility: 6 or more miles (10+ km)
Clouds: few clouds at 3000 feet AGL
Weather: no significant weather forecast for this period
Text: BECMG 2812/2815 15006KT
Forecast period: 1200 to 1800 UTC 28 May 2017
Forecast type: BECOMING: Conditions expected to become as follows by 1500 UTC 28 May 2017
Winds: from the SSE (150 degrees) at 7 MPH (6 knots; 3.1 m/s)
Visibility: 6 or more miles (10+ km)
Clouds: few clouds at 3000 feet AGL
Weather: no significant weather forecast for this period